sensor_id;sensor_type;location;lat;lon;timestamp;P1;durP1;ratioP1;P2;durP2;ratioP2
45206;SDS011;30950;53.086;21.576;2022-12-18T18:13:00;95.05;;;36.03;;
45206;SDS011;30950;53.086;21.576;2022-12-18T18:15:55;96.47;;;35.13;;
45206;SDS011;30950;53.086;21.576;2022-12-18T18:18:23;106.03;;;43.72;;
45206;SDS011;30950;53.086;21.576;2022-12-18T18:20:51;82.65;;;34.05;;
45206;SDS011;30950;53.086;21.576;2022-12-18T18:23:19;82.78;;;31.67;;
45206;SDS011;30950;53.086;21.576;2022-12-18T18:25:48;94.47;;;37.83;;
45206;SDS011;30950;53.086;21.576;2022-12-18T18:28:19;79.10;;;35.28;;
45206;SDS011;30950;53.086;21.576;2022-12-18T18:30:46;73.25;;;29.90;;
45206;SDS011;30950;53.086;21.576;2022-12-18T18:33:14;79.47;;;33.95;;
45206;SDS011;30950;53.086;21.576;2022-12-18T18:35:44;76.72;;;31.52;;
45206;SDS011;30950;53.086;21.576;2022-12-18T18:38:20;85.50;;;37.50;;
45206;SDS011;30950;53.086;21.576;2022-12-18T18:40:47;79.55;;;36.60;;
45206;SDS011;30950;53.086;21.576;2022-12-18T18:43:15;64.38;;;29.40;;
45206;SDS011;30950;53.086;21.576;2022-12-18T18:45:42;84.50;;;36.20;;
45206;SDS011;30950;53.086;21.576;2022-12-18T18:48:12;80.68;;;34.30;;
45206;SDS011;30950;53.086;21.576;2022-12-18T18:50:40;91.75;;;42.03;;
45206;SDS011;30950;53.086;21.576;2022-12-18T18:53:09;88.30;;;38.42;;
45206;SDS011;30950;53.086;21.576;2022-12-18T18:55:37;90.65;;;35.20;;
45206;SDS011;30950;53.086;21.576;2022-12-18T18:58:04;96.95;;;41.17;;
45206;SDS011;30950;53.086;21.576;2022-12-18T19:00:32;120.47;;;57.45;;
45206;SDS011;30950;53.086;21.576;2022-12-18T19:03:00;108.32;;;47.85;;
45206;SDS011;30950;53.086;21.576;2022-12-18T19:05:37;100.53;;;39.67;;
45206;SDS011;30950;53.086;21.576;2022-12-18T19:08:10;81.45;;;34.75;;
45206;SDS011;30950;53.086;21.576;2022-12-18T19:10:40;80.30;;;35.28;;
45206;SDS011;30950;53.086;21.576;2022-12-18T19:13:09;124.20;;;53.47;;
45206;SDS011;30950;53.086;21.576;2022-12-18T19:15:48;85.95;;;40.78;;
45206;SDS011;30950;53.086;21.576;2022-12-18T19:18:15;78.90;;;34.53;;
45206;SDS011;30950;53.086;21.576;2022-12-18T19:20:43;72.28;;;31.13;;
45206;SDS011;30950;53.086;21.576;2022-12-18T19:23:10;71.90;;;28.92;;
45206;SDS011;30950;53.086;21.576;2022-12-18T19:25:38;74.65;;;35.30;;
45206;SDS011;30950;53.086;21.576;2022-12-18T19:28:08;83.80;;;36.63;;
45206;SDS011;30950;53.086;21.576;2022-12-18T19:30:49;70.05;;;33.22;;
45206;SDS011;30950;53.086;21.576;2022-12-18T19:33:25;70.53;;;30.75;;
45206;SDS011;30950;53.086;21.576;2022-12-18T19:36:19;77.97;;;33.20;;
45206;SDS011;30950;53.086;21.576;2022-12-18T19:38:52;75.47;;;34.75;;
45206;SDS011;30950;53.086;21.576;2022-12-18T19:41:22;72.18;;;31.45;;
45206;SDS011;30950;53.086;21.576;2022-12-18T19:43:51;71.35;;;31.95;;
45206;SDS011;30950;53.086;21.576;2022-12-18T19:46:19;74.22;;;32.35;;
45206;SDS011;30950;53.086;21.576;2022-12-18T19:48:48;72.60;;;31.85;;
45206;SDS011;30950;53.086;21.576;2022-12-18T19:51:17;76.68;;;34.10;;
45206;SDS011;30950;53.086;21.576;2022-12-18T19:53:46;66.65;;;30.73;;
45206;SDS011;30950;53.086;21.576;2022-12-18T19:56:22;73.07;;;33.25;;
45206;SDS011;30950;53.086;21.576;2022-12-18T19:58:51;65.32;;;28.35;;
45206;SDS011;30950;53.086;21.576;2022-12-18T20:01:21;65.25;;;31.13;;
45206;SDS011;30950;53.086;21.576;2022-12-18T20:03:50;64.45;;;29.80;;
45206;SDS011;30950;53.086;21.576;2022-12-18T20:06:25;62.05;;;25.65;;
45206;SDS011;30950;53.086;21.576;2022-12-18T20:09:05;67.97;;;31.30;;
45206;SDS011;30950;53.086;21.576;2022-12-18T20:11:33;78.93;;;35.38;;
45206;SDS011;30950;53.086;21.576;2022-12-18T20:14:08;77.43;;;34.85;;
45206;SDS011;30950;53.086;21.576;2022-12-18T20:16:37;90.40;;;38.80;;
45206;SDS011;30950;53.086;21.576;2022-12-18T20:19:04;101.53;;;48.95;;
45206;SDS011;30950;53.086;21.576;2022-12-18T20:21:33;92.22;;;41.10;;
45206;SDS011;30950;53.086;21.576;2022-12-18T20:24:00;69.15;;;30.50;;
45206;SDS011;30950;53.086;21.576;2022-12-18T20:26:28;67.07;;;28.92;;
45206;SDS011;30950;53.086;21.576;2022-12-18T20:28:55;68.43;;;32.50;;
45206;SDS011;30950;53.086;21.576;2022-12-18T20:31:23;64.90;;;26.40;;
45206;SDS011;30950;53.086;21.576;2022-12-18T20:33:50;67.70;;;28.10;;
45206;SDS011;30950;53.086;21.576;2022-12-18T20:36:21;67.00;;;29.77;;
45206;SDS011;30950;53.086;21.576;2022-12-18T20:38:52;70.03;;;29.25;;
45206;SDS011;30950;53.086;21.576;2022-12-18T20:41:25;63.67;;;26.35;;
45206;SDS011;30950;53.086;21.576;2022-12-18T20:44:07;54.60;;;21.77;;
45206;SDS011;30950;53.086;21.576;2022-12-18T20:46:50;51.47;;;22.30;;
45206;SDS011;30950;53.086;21.576;2022-12-18T20:49:20;59.63;;;24.63;;
45206;SDS011;30950;53.086;21.576;2022-12-18T20:51:48;71.15;;;30.27;;
45206;SDS011;30950;53.086;21.576;2022-12-18T20:54:17;67.28;;;28.38;;
45206;SDS011;30950;53.086;21.576;2022-12-18T20:56:44;65.10;;;27.42;;
45206;SDS011;30950;53.086;21.576;2022-12-18T20:59:12;69.82;;;30.42;;
45206;SDS011;30950;53.086;21.576;2022-12-18T21:01:39;56.53;;;25.15;;
45206;SDS011;30950;53.086;21.576;2022-12-18T21:04:15;57.97;;;27.42;;
45206;SDS011;30950;53.086;21.576;2022-12-18T21:06:44;60.97;;;27.02;;
45206;SDS011;30950;53.086;21.576;2022-12-18T21:09:23;53.92;;;23.80;;
45206;SDS011;30950;53.086;21.576;2022-12-18T21:11:50;53.72;;;23.55;;
45206;SDS011;30950;53.086;21.576;2022-12-18T21:14:40;57.72;;;22.75;;
45206;SDS011;30950;53.086;21.576;2022-12-18T21:17:08;59.72;;;26.02;;
45206;SDS011;30950;53.086;21.576;2022-12-18T21:19:36;73.35;;;29.75;;
45206;SDS011;30950;53.086;21.576;2022-12-18T21:22:04;59.65;;;28.27;;
45206;SDS011;30950;53.086;21.576;2022-12-18T21:24:32;65.35;;;31.50;;
45206;SDS011;30950;53.086;21.576;2022-12-18T21:26:59;60.35;;;26.38;;
45206;SDS011;30950;53.086;21.576;2022-12-18T21:29:28;93.82;;;40.85;;
45206;SDS011;30950;53.086;21.576;2022-12-18T21:31:55;72.60;;;33.22;;
45206;SDS011;30950;53.086;21.576;2022-12-18T21:34:24;56.10;;;26.05;;
45206;SDS011;30950;53.086;21.576;2022-12-18T21:36:53;62.55;;;29.27;;
45206;SDS011;30950;53.086;21.576;2022-12-18T21:39:23;76.13;;;31.48;;
45206;SDS011;30950;53.086;21.576;2022-12-18T21:41:51;62.00;;;27.20;;
45206;SDS011;30950;53.086;21.576;2022-12-18T21:44:37;86.57;;;37.83;;
45206;SDS011;30950;53.086;21.576;2022-12-18T21:47:08;90.55;;;42.80;;
45206;SDS011;30950;53.086;21.576;2022-12-18T21:49:51;61.35;;;26.38;;
45206;SDS011;30950;53.086;21.576;2022-12-18T21:52:20;67.32;;;29.08;;
45206;SDS011;30950;53.086;21.576;2022-12-18T21:54:57;62.22;;;29.30;;
45206;SDS011;30950;53.086;21.576;2022-12-18T21:57:35;65.88;;;29.88;;
45206;SDS011;30950;53.086;21.576;2022-12-18T22:00:04;67.97;;;31.83;;
45206;SDS011;30950;53.086;21.576;2022-12-18T22:02:37;65.70;;;30.35;;
45206;SDS011;30950;53.086;21.576;2022-12-18T22:05:05;60.90;;;27.42;;
45206;SDS011;30950;53.086;21.576;2022-12-18T22:07:33;62.25;;;28.08;;
45206;SDS011;30950;53.086;21.576;2022-12-18T22:10:00;61.30;;;28.65;;
45206;SDS011;30950;53.086;21.576;2022-12-18T22:12:28;63.25;;;28.48;;
45206;SDS011;30950;53.086;21.576;2022-12-18T22:15:11;63.30;;;27.40;;
45206;SDS011;30950;53.086;21.576;2022-12-18T22:17:48;57.60;;;27.45;;
45206;SDS011;30950;53.086;21.576;2022-12-18T22:20:16;64.28;;;28.80;;
45206;SDS011;30950;53.086;21.576;2022-12-18T22:22:46;51.08;;;25.20;;
45206;SDS011;30950;53.086;21.576;2022-12-18T22:25:14;62.70;;;29.30;;
45206;SDS011;30950;53.086;21.576;2022-12-18T22:27:42;57.95;;;25.73;;
45206;SDS011;30950;53.086;21.576;2022-12-18T22:30:29;62.60;;;29.35;;
45206;SDS011;30950;53.086;21.576;2022-12-18T22:32:57;57.10;;;25.30;;
45206;SDS011;30950;53.086;21.576;2022-12-18T22:35:24;55.40;;;25.20;;
45206;SDS011;30950;53.086;21.576;2022-12-18T22:37:52;59.67;;;28.38;;
45206;SDS011;30950;53.086;21.576;2022-12-18T22:40:21;56.13;;;25.77;;
45206;SDS011;30950;53.086;21.576;2022-12-18T22:42:52;50.42;;;24.42;;
45206;SDS011;30950;53.086;21.576;2022-12-18T22:45:20;55.75;;;26.15;;
45206;SDS011;30950;53.086;21.576;2022-12-18T22:47:47;56.25;;;22.00;;
45206;SDS011;30950;53.086;21.576;2022-12-18T22:50:16;53.65;;;25.83;;
45206;SDS011;30950;53.086;21.576;2022-12-18T22:52:44;47.20;;;23.27;;
45206;SDS011;30950;53.086;21.576;2022-12-18T22:55:12;52.20;;;23.67;;
45206;SDS011;30950;53.086;21.576;2022-12-18T22:57:40;54.75;;;24.10;;
45206;SDS011;30950;53.086;21.576;2022-12-18T23:00:14;50.63;;;22.90;;
45206;SDS011;30950;53.086;21.576;2022-12-18T23:02:50;52.20;;;24.20;;
45206;SDS011;30950;53.086;21.576;2022-12-18T23:05:25;54.00;;;24.42;;
45206;SDS011;30950;53.086;21.576;2022-12-18T23:07:54;53.40;;;24.40;;
45206;SDS011;30950;53.086;21.576;2022-12-18T23:10:21;52.83;;;23.63;;
45206;SDS011;30950;53.086;21.576;2022-12-18T23:12:48;45.97;;;21.20;;
45206;SDS011;30950;53.086;21.576;2022-12-18T23:15:16;47.72;;;23.85;;
45206;SDS011;30950;53.086;21.576;2022-12-18T23:17:48;42.92;;;21.98;;
45206;SDS011;30950;53.086;21.576;2022-12-18T23:20:15;49.83;;;23.05;;
45206;SDS011;30950;53.086;21.576;2022-12-18T23:22:43;48.47;;;24.73;;
45206;SDS011;30950;53.086;21.576;2022-12-18T23:25:11;49.00;;;22.00;;
45206;SDS011;30950;53.086;21.576;2022-12-18T23:27:38;47.40;;;23.63;;
45206;SDS011;30950;53.086;21.576;2022-12-18T23:30:06;46.13;;;23.15;;
45206;SDS011;30950;53.086;21.576;2022-12-18T23:32:35;49.55;;;23.92;;
45206;SDS011;30950;53.086;21.576;2022-12-18T23:35:02;42.33;;;21.25;;
45206;SDS011;30950;53.086;21.576;2022-12-18T23:37:32;49.65;;;22.08;;
45206;SDS011;30950;53.086;21.576;2022-12-18T23:40:19;52.05;;;24.05;;
45206;SDS011;30950;53.086;21.576;2022-12-18T23:42:47;47.08;;;23.63;;
45206;SDS011;30950;53.086;21.576;2022-12-18T23:45:14;45.55;;;20.80;;
45206;SDS011;30950;53.086;21.576;2022-12-18T23:47:44;47.88;;;21.02;;
45206;SDS011;30950;53.086;21.576;2022-12-18T23:50:16;43.40;;;21.98;;
45206;SDS011;30950;53.086;21.576;2022-12-18T23:52:44;48.42;;;22.17;;
45206;SDS011;30950;53.086;21.576;2022-12-18T23:55:11;46.22;;;22.30;;
45206;SDS011;30950;53.086;21.576;2022-12-18T23:57:38;44.53;;;21.60;;
